createdAt,value
2022-09-13T00:01:22.243Z,12.80
2022-09-13T00:03:48.810Z,12.60
2022-09-13T00:06:18.906Z,12.60
2022-09-13T00:08:46.320Z,12.50
2022-09-13T00:11:24.192Z,12.50
2022-09-13T00:13:51.468Z,12.50
2022-09-13T00:16:24.147Z,12.60
2022-09-13T00:18:51.482Z,12.40
2022-09-13T00:21:21.063Z,12.40
2022-09-13T00:23:51.443Z,12.30
2022-09-13T00:26:23.712Z,12.30
2022-09-13T00:28:57.013Z,12.30
2022-09-13T00:31:27.347Z,12.30
2022-09-13T00:33:54.291Z,12.20
2022-09-13T00:36:20.992Z,12.00
2022-09-13T00:38:47.503Z,12.00
2022-09-13T00:41:17.664Z,12.10
2022-09-13T00:43:52.727Z,12.30
2022-09-13T00:47:24.278Z,12.50
2022-09-13T00:50:00.797Z,12.40
2022-09-13T00:52:31.858Z,12.30
2022-09-13T00:55:12.744Z,12.30
2022-09-13T00:57:41.326Z,12.30
2022-09-13T01:00:17.004Z,12.30
2022-09-13T01:02:58.052Z,12.20
2022-09-13T01:05:38.216Z,12.20
2022-09-13T01:08:15.247Z,12.00
2022-09-13T01:10:44.306Z,11.80
2022-09-13T01:13:23.670Z,11.80
2022-09-13T01:15:51.248Z,11.80
2022-09-13T01:18:18.469Z,11.80
2022-09-13T01:26:48.258Z,11.80
2022-09-13T01:31:06.992Z,11.70
2022-09-13T01:34:12.426Z,11.50
2022-09-13T01:38:05.780Z,11.60
2022-09-13T01:41:21.576Z,11.70
2022-09-13T01:45:55.574Z,11.60
2022-09-13T01:50:22.073Z,11.50
2022-09-13T01:53:07.958Z,11.50
2022-09-13T01:56:04.350Z,11.60
2022-09-13T01:58:50.000Z,11.40
2022-09-13T02:01:28.715Z,11.30
2022-09-13T02:05:44.547Z,11.30
2022-09-13T02:08:33.605Z,11.30
2022-09-13T02:11:16.592Z,11.20
2022-09-13T02:14:37.561Z,11.20
2022-09-13T02:17:24.632Z,11.10
2022-09-13T02:20:30.532Z,11.10
2022-09-13T02:23:02.002Z,11.00
2022-09-13T02:25:35.434Z,11.10
2022-09-13T02:28:08.954Z,11.00
2022-09-13T02:30:40.974Z,11.00
2022-09-13T02:33:25.963Z,11.00
2022-09-13T02:36:05.823Z,10.80
2022-09-13T02:38:55.232Z,10.60
2022-09-13T02:41:43.176Z,10.70
2022-09-13T02:44:42.860Z,10.80
2022-09-13T02:47:59.967Z,10.70
2022-09-13T02:54:43.024Z,10.50
2022-09-13T02:57:41.881Z,10.60
2022-09-13T03:00:09.747Z,10.60
2022-09-13T03:02:39.940Z,10.70
2022-09-13T03:05:07.083Z,10.70
2022-09-13T03:07:33.617Z,10.80
2022-09-13T03:10:07.887Z,10.70
2022-09-13T03:15:44.915Z,10.60
2022-09-13T03:20:02.853Z,10.40
2022-09-13T03:23:31.774Z,10.50
2022-09-13T03:27:08.891Z,10.50
2022-09-13T03:30:01.813Z,10.50
2022-09-13T03:33:01.392Z,10.50
2022-09-13T03:37:23.765Z,10.50
2022-09-13T03:40:11.855Z,10.20
2022-09-13T03:44:03.065Z,10.20
2022-09-13T03:46:42.598Z,10.30
2022-09-13T03:49:16.551Z,10.40
2022-09-13T03:51:49.996Z,10.50
2022-09-13T03:54:29.039Z,10.60
2022-09-13T03:57:21.259Z,10.40
2022-09-13T03:59:54.872Z,10.40
2022-09-13T04:02:24.004Z,10.60
2022-09-13T04:04:51.281Z,10.60
2022-09-13T04:07:21.751Z,10.50
2022-09-13T04:09:51.263Z,10.50
2022-09-13T04:12:18.386Z,10.60
2022-09-13T04:14:45.136Z,10.60
2022-09-13T04:17:12.387Z,10.50
2022-09-13T04:19:39.147Z,10.60
2022-09-13T04:22:05.648Z,10.50
2022-09-13T04:24:32.402Z,10.30
2022-09-13T04:27:00.615Z,10.20
2022-09-13T04:29:27.102Z,10.20
2022-09-13T04:31:54.999Z,10.20
2022-09-13T04:34:22.392Z,10.30
2022-09-13T04:36:51.724Z,10.10
2022-09-13T04:39:19.503Z,10.10
2022-09-13T04:41:48.105Z,10.30
2022-09-13T04:44:16.747Z,10.30
2022-09-13T04:46:47.440Z,10.30
2022-09-13T04:49:15.189Z,10.30
2022-09-13T04:51:41.708Z,10.20
2022-09-13T04:54:14.981Z,10.20
2022-09-13T04:56:46.336Z,10.20
2022-09-13T04:59:13.099Z,10.10
2022-09-13T05:01:40.589Z,10.10
2022-09-13T05:04:08.757Z,10.10
2022-09-13T05:06:35.563Z,10.10
2022-09-13T05:09:02.437Z,10.20
2022-09-13T05:11:29.707Z,10.30
2022-09-13T05:13:59.214Z,10.30
2022-09-13T05:16:30.721Z,10.40
2022-09-13T05:18:57.658Z,10.40
2022-09-13T05:21:24.815Z,10.60
2022-09-13T05:23:53.313Z,10.70
2022-09-13T05:26:21.818Z,10.80
2022-09-13T05:28:49.065Z,10.90
2022-09-13T05:31:29.757Z,11.00
2022-09-13T05:34:03.309Z,11.00
2022-09-13T05:36:29.905Z,11.00
2022-09-13T05:39:12.570Z,11.20
2022-09-13T05:41:45.632Z,11.40
2022-09-13T05:44:13.568Z,11.50
2022-09-13T05:46:41.939Z,11.60
2022-09-13T05:49:08.437Z,11.80
2022-09-13T05:51:35.694Z,12.10
2022-09-13T05:54:02.154Z,12.30
2022-09-13T05:56:30.220Z,12.50
2022-09-13T05:58:57.461Z,12.60
2022-09-13T06:01:28.790Z,12.90
2022-09-13T06:03:58.480Z,13.00
2022-09-13T06:06:25.541Z,13.20
2022-09-13T06:08:54.032Z,13.40
2022-09-13T06:11:20.840Z,13.60
2022-09-13T06:13:47.317Z,13.90
2022-09-13T06:16:15.894Z,14.30
2022-09-13T06:18:43.316Z,14.70
2022-09-13T06:21:16.995Z,14.90
2022-09-13T06:23:48.974Z,15.00
2022-09-13T06:26:18.732Z,15.20
2022-09-13T06:28:54.831Z,15.30
2022-09-13T06:31:25.044Z,15.40
2022-09-13T06:33:59.125Z,15.50
2022-09-13T06:36:26.377Z,15.50
2022-09-13T06:38:52.885Z,15.50
2022-09-13T06:41:22.730Z,15.60
2022-09-13T06:43:58.233Z,15.80
2022-09-13T06:46:27.678Z,16.10
2022-09-13T06:48:55.060Z,16.20
2022-09-13T06:51:24.571Z,16.30
2022-09-13T06:53:52.642Z,16.50
2022-09-13T06:56:22.900Z,16.60
2022-09-13T06:58:54.047Z,16.60
2022-09-13T07:01:24.946Z,16.80
2022-09-13T07:04:23.014Z,17.00
2022-09-13T07:06:50.277Z,17.10
2022-09-13T07:09:20.814Z,17.20
2022-09-13T07:11:50.297Z,17.30
2022-09-13T07:14:24.469Z,17.50
2022-09-13T07:16:51.919Z,17.60
2022-09-13T07:19:25.736Z,17.90
2022-09-13T07:21:53.631Z,18.10
2022-09-13T07:24:21.708Z,18.20
2022-09-13T07:26:49.146Z,18.30
2022-09-13T07:29:21.862Z,18.40
2022-09-13T07:31:54.081Z,18.40
2022-09-13T07:34:25.750Z,18.50
2022-09-13T07:36:52.849Z,18.70
2022-09-13T07:39:22.675Z,18.90
2022-09-13T07:41:50.856Z,19.10
2022-09-13T07:44:17.333Z,19.20
2022-09-13T07:46:43.909Z,19.30
2022-09-13T07:49:17.470Z,19.40
2022-09-13T07:51:44.993Z,19.50
2022-09-13T07:54:15.707Z,19.60
2022-09-13T07:56:43.199Z,19.60
2022-09-13T07:59:17.465Z,19.70
2022-09-13T08:01:49.864Z,19.90
2022-09-13T08:04:24.686Z,19.90
2022-09-13T08:06:51.204Z,20.10
2022-09-13T08:09:18.024Z,20.20
2022-09-13T08:11:52.104Z,20.30
2022-09-13T08:14:21.627Z,20.40
2022-09-13T08:16:48.190Z,20.60
2022-09-13T08:19:18.176Z,20.70
2022-09-13T08:21:45.931Z,20.80
2022-09-13T08:24:20.638Z,20.80
2022-09-13T08:26:47.587Z,20.90
2022-09-13T08:29:15.460Z,21.10
2022-09-13T08:31:42.046Z,21.10
2022-09-13T08:34:17.308Z,21.20
2022-09-13T08:36:44.100Z,21.20
2022-09-13T08:39:14.222Z,21.50
2022-09-13T08:45:07.652Z,21.40
2022-09-13T08:48:03.822Z,21.30
2022-09-13T08:50:34.109Z,21.60
2022-09-13T08:54:16.870Z,21.50
2022-09-13T08:58:49.088Z,21.40
2022-09-13T09:04:29.381Z,22.00
2022-09-13T09:07:14.157Z,22.10
2022-09-13T09:10:25.679Z,22.40
2022-09-13T09:13:51.941Z,22.60
2022-09-13T09:17:34.521Z,22.80
2022-09-13T09:20:47.831Z,22.70
2022-09-13T09:23:27.249Z,22.70
2022-09-13T09:26:18.844Z,22.90
2022-09-13T09:29:32.844Z,22.90
2022-09-13T09:34:55.480Z,22.80
2022-09-13T09:37:29.495Z,22.90
2022-09-13T09:40:06.875Z,22.80
2022-09-13T09:42:46.858Z,22.60
2022-09-13T09:45:39.118Z,22.80
2022-09-13T09:48:14.896Z,22.90
2022-09-13T09:50:53.855Z,22.90
2022-09-13T09:53:40.480Z,23.00
2022-09-13T09:56:54.689Z,23.00
2022-09-13T09:59:33.087Z,23.10
2022-09-13T10:02:07.068Z,23.20
2022-09-13T10:04:35.183Z,23.30
2022-09-13T10:08:07.896Z,23.20
2022-09-13T10:10:53.485Z,23.30
2022-09-13T10:13:23.361Z,23.20
2022-09-13T10:16:27.165Z,23.20
2022-09-13T10:18:53.776Z,23.10
2022-09-13T10:21:26.700Z,23.30
2022-09-13T10:24:18.295Z,23.50
2022-09-13T10:26:45.873Z,23.40
2022-09-13T10:29:17.983Z,23.60
2022-09-13T10:31:49.332Z,23.60
2022-09-13T10:34:30.270Z,23.60
2022-09-13T10:37:26.180Z,23.50
2022-09-13T10:40:19.031Z,23.70
2022-09-13T10:42:58.777Z,23.60
2022-09-13T10:45:30.650Z,23.60
2022-09-13T10:48:15.784Z,23.50
2022-09-13T10:51:15.460Z,23.60
2022-09-13T10:53:42.681Z,23.90
2022-09-13T10:56:30.309Z,23.80
2022-09-13T10:59:30.007Z,23.80
2022-09-13T11:04:56.104Z,23.60
2022-09-13T11:09:21.042Z,24.10
2022-09-13T11:15:12.874Z,24.60
2022-09-13T11:21:41.415Z,24.70
2022-09-13T11:24:46.993Z,24.50
2022-09-13T11:30:18.455Z,24.40
2022-09-13T11:35:21.201Z,24.20
2022-09-13T11:42:11.014Z,24.40
2022-09-13T11:48:56.648Z,24.60
2022-09-13T11:53:14.252Z,24.90
2022-09-13T11:56:08.880Z,25.00
2022-09-13T11:58:49.717Z,24.90
2022-09-13T12:01:39.542Z,25.00
2022-09-13T12:04:30.543Z,25.10
2022-09-13T12:07:12.993Z,25.20
2022-09-13T12:09:54.568Z,25.40
2022-09-13T12:12:26.210Z,25.10
2022-09-13T12:15:13.159Z,25.00
2022-09-13T12:17:57.523Z,24.80
2022-09-13T12:20:44.714Z,24.90
2022-09-13T12:23:32.708Z,24.90
2022-09-13T12:26:25.904Z,24.90
2022-09-13T12:29:00.188Z,25.10
2022-09-13T12:31:30.999Z,25.10
2022-09-13T12:34:00.180Z,24.90
2022-09-13T12:37:24.246Z,24.90
2022-09-13T12:44:50.881Z,25.10
2022-09-13T12:47:58.825Z,25.00
2022-09-13T12:52:58.533Z,25.00
2022-09-13T12:57:33.046Z,25.10
2022-09-13T13:00:21.158Z,25.00
2022-09-13T13:05:53.057Z,25.10
2022-09-13T13:08:29.911Z,24.80
2022-09-13T13:11:13.290Z,24.80
2022-09-13T13:15:52.306Z,24.70
2022-09-13T13:18:30.113Z,24.70
2022-09-13T13:21:23.993Z,24.70
2022-09-13T13:24:38.300Z,24.60
2022-09-13T13:27:37.779Z,24.50
2022-09-13T13:31:39.726Z,24.30
2022-09-13T13:34:51.752Z,24.30
2022-09-13T13:37:33.309Z,24.20
2022-09-13T13:40:26.104Z,24.10
2022-09-13T13:43:33.986Z,24.20
2022-09-13T13:49:45.631Z,24.20
2022-09-13T13:53:04.903Z,24.10
2022-09-13T13:55:48.726Z,23.90
2022-09-13T13:59:50.003Z,23.80
2022-09-13T14:02:24.898Z,23.70
2022-09-13T14:06:02.641Z,23.50
2022-09-13T14:10:21.301Z,23.40
2022-09-13T14:16:01.611Z,23.50
2022-09-13T14:20:20.374Z,23.50
2022-09-13T14:22:47.308Z,23.70
2022-09-13T14:25:24.684Z,23.90
2022-09-13T14:27:58.358Z,24.00
2022-09-13T14:30:35.823Z,24.10
2022-09-13T14:33:05.277Z,23.90
2022-09-13T14:35:40.856Z,23.90
2022-09-13T14:38:59.278Z,23.90
2022-09-13T14:41:37.751Z,23.80
2022-09-13T14:44:28.351Z,23.60
2022-09-13T14:49:04.735Z,23.60
2022-09-13T14:51:47.076Z,23.60
2022-09-13T14:54:24.757Z,23.50
2022-09-13T14:56:59.074Z,23.40
2022-09-13T14:59:44.612Z,23.20
2022-09-13T15:02:26.766Z,23.30
2022-09-13T15:04:57.634Z,23.30
2022-09-13T15:07:31.898Z,23.40
2022-09-13T15:10:27.591Z,23.50
2022-09-13T15:13:10.357Z,23.60
2022-09-13T15:15:41.595Z,24.00
2022-09-13T15:18:35.583Z,24.00
2022-09-13T15:21:17.344Z,24.00
2022-09-13T15:23:50.554Z,23.90
2022-09-13T15:26:23.262Z,23.90
2022-09-13T15:29:03.399Z,23.90
2022-09-13T15:31:34.219Z,23.90
2022-09-13T15:36:11.838Z,23.80
2022-09-13T15:40:46.677Z,23.70
2022-09-13T15:43:13.484Z,23.70
2022-09-13T15:45:40.147Z,23.70
2022-09-13T15:48:27.458Z,23.60
2022-09-13T15:51:13.073Z,23.60
2022-09-13T15:53:42.587Z,23.60
2022-09-13T15:56:14.701Z,23.80
2022-09-13T15:58:41.142Z,23.90
2022-09-13T16:01:13.626Z,23.80
2022-09-13T16:03:40.412Z,23.70
2022-09-13T16:06:10.033Z,23.60
2022-09-13T16:08:39.830Z,23.60
2022-09-13T16:11:07.327Z,23.40
2022-09-13T16:13:35.374Z,23.30
2022-09-13T16:16:04.288Z,23.20
2022-09-13T16:18:31.512Z,23.10
2022-09-13T16:20:58.283Z,22.90
2022-09-13T16:23:25.086Z,22.90
2022-09-13T16:25:57.770Z,22.80
2022-09-13T16:28:24.260Z,22.80
2022-09-13T16:30:51.349Z,22.70
2022-09-13T16:33:19.011Z,22.60
2022-09-13T16:35:46.331Z,22.40
2022-09-13T16:38:13.109Z,22.30
2022-09-13T16:40:44.278Z,22.20
2022-09-13T16:43:11.998Z,22.00
2022-09-13T16:45:40.804Z,21.90
2022-09-13T16:48:08.293Z,21.90
2022-09-13T16:50:38.395Z,21.80
2022-09-13T16:53:04.901Z,21.60
2022-09-13T16:55:31.953Z,21.40
2022-09-13T16:57:58.442Z,21.30
2022-09-13T17:00:27.841Z,21.10
2022-09-13T17:02:55.888Z,21.00
2022-09-13T17:05:23.823Z,21.00
2022-09-13T17:07:51.919Z,20.90
2022-09-13T17:10:19.308Z,21.00
2022-09-13T17:12:45.834Z,21.20
2022-09-13T17:15:12.508Z,21.20
2022-09-13T17:17:39.002Z,21.00
2022-09-13T17:20:11.258Z,20.90
2022-09-13T17:22:37.853Z,20.60
2022-09-13T17:25:07.165Z,20.30
2022-09-13T17:27:33.978Z,20.20
2022-09-13T17:30:01.625Z,20.00
2022-09-13T17:32:28.132Z,20.20
2022-09-13T17:34:54.586Z,20.00
2022-09-13T17:37:21.028Z,19.80
2022-09-13T17:39:47.954Z,19.70
2022-09-13T17:42:14.496Z,19.60
2022-09-13T17:44:40.964Z,19.50
2022-09-13T17:47:07.568Z,19.40
2022-09-13T17:49:34.139Z,19.40
2022-09-13T17:52:01.458Z,19.40
2022-09-13T17:54:27.987Z,19.50
2022-09-13T17:56:54.460Z,19.50
2022-09-13T17:59:21.854Z,19.60
2022-09-13T18:01:53.827Z,19.60
2022-09-13T18:04:22.744Z,19.50
2022-09-13T18:06:51.818Z,19.40
2022-09-13T18:09:18.787Z,19.30
2022-09-13T18:11:45.557Z,19.20
2022-09-13T18:14:15.169Z,19.10
2022-09-13T18:16:42.264Z,19.00
2022-09-13T18:19:08.919Z,19.00
2022-09-13T18:21:35.405Z,19.00
2022-09-13T18:24:02.599Z,19.20
2022-09-13T18:26:31.907Z,19.40
2022-09-13T18:29:02.068Z,19.50
2022-09-13T18:31:30.708Z,19.50
2022-09-13T18:34:07.240Z,19.40
2022-09-13T18:36:35.487Z,19.40
2022-09-13T18:39:04.417Z,19.30
2022-09-13T18:41:35.438Z,19.30
2022-09-13T18:44:04.186Z,19.20
2022-09-13T18:46:31.954Z,19.10
2022-09-13T18:48:59.265Z,19.00
2022-09-13T18:51:41.504Z,19.00
2022-09-13T18:54:12.849Z,19.00
2022-09-13T18:56:39.546Z,19.10
2022-09-13T18:59:07.555Z,19.00
2022-09-13T19:01:42.877Z,19.10
2022-09-13T19:04:27.609Z,19.10
2022-09-13T19:06:57.667Z,19.10
2022-09-13T19:09:24.342Z,19.20
2022-09-13T19:11:53.786Z,19.10
2022-09-13T19:14:26.890Z,19.00
2022-09-13T19:16:56.471Z,19.00
2022-09-13T19:19:23.917Z,19.10
2022-09-13T19:21:51.608Z,19.00
2022-09-13T19:24:19.891Z,19.00
2022-09-13T19:26:50.465Z,18.80
2022-09-13T19:29:22.533Z,18.80
2022-09-13T19:31:51.596Z,18.70
2022-09-13T19:34:21.574Z,18.80
2022-09-13T19:36:51.451Z,18.90
2022-09-13T19:39:18.095Z,19.00
2022-09-13T19:41:44.611Z,18.90
2022-09-13T19:44:14.825Z,18.90
2022-09-13T19:46:42.461Z,18.90
2022-09-13T19:49:16.507Z,18.70
2022-09-13T19:51:48.790Z,18.80
2022-09-13T19:54:18.068Z,18.80
2022-09-13T19:56:44.561Z,18.90
2022-09-13T19:59:15.088Z,18.80
2022-09-13T20:01:44.720Z,18.60
2022-09-13T20:04:15.562Z,18.60
2022-09-13T20:06:45.309Z,18.50
2022-09-13T20:09:14.765Z,18.50
2022-09-13T20:11:44.612Z,18.40
2022-09-13T20:14:13.295Z,18.20
2022-09-13T20:16:41.635Z,18.20
2022-09-13T20:19:39.048Z,18.10
2022-09-13T20:22:08.663Z,18.00
2022-09-13T20:24:35.237Z,17.80
2022-09-13T20:27:01.735Z,17.60
2022-09-13T20:29:28.223Z,17.60
2022-09-13T20:31:54.731Z,17.50
2022-09-13T20:34:21.255Z,17.50
2022-09-13T20:36:47.754Z,17.60
2022-09-13T20:39:14.902Z,17.70
2022-09-13T20:41:43.533Z,17.80
2022-09-13T20:44:10.937Z,17.70
2022-09-13T20:46:39.532Z,17.70
2022-09-13T20:49:11.535Z,17.60
2022-09-13T20:51:38.194Z,17.50
2022-09-13T20:54:05.726Z,17.40
2022-09-13T20:56:33.516Z,17.30
2022-09-13T20:59:00.527Z,17.30
2022-09-13T21:01:30.402Z,17.30
2022-09-13T21:03:58.123Z,17.20
2022-09-13T21:06:27.982Z,17.40
2022-09-13T21:08:58.981Z,17.50
2022-09-13T21:11:29.670Z,17.60
2022-09-13T21:14:00.368Z,17.50
2022-09-13T21:16:30.359Z,17.50
2022-09-13T21:18:57.041Z,17.60
2022-09-13T21:21:29.339Z,17.60
2022-09-13T21:23:57.367Z,17.50
2022-09-13T21:26:26.676Z,17.40
2022-09-13T21:28:54.942Z,17.30
2022-09-13T21:31:25.649Z,17.20
2022-09-13T21:34:04.215Z,17.10
2022-09-13T21:36:33.909Z,17.00
2022-09-13T21:39:01.560Z,16.90
2022-09-13T21:41:28.224Z,17.10
2022-09-13T21:43:54.810Z,17.00
2022-09-13T21:46:30.977Z,17.00
2022-09-13T21:49:02.637Z,17.00
2022-09-13T21:51:36.284Z,17.00
2022-09-13T21:54:06.434Z,17.00
2022-09-13T21:56:40.137Z,17.00
2022-09-13T21:59:19.205Z,17.00
2022-09-13T22:01:50.481Z,17.20
2022-09-13T22:04:23.896Z,17.10
2022-09-13T22:06:52.633Z,17.10
2022-09-13T22:09:22.245Z,17.00
2022-09-13T22:11:49.129Z,17.00
2022-09-13T22:14:19.101Z,17.00
2022-09-13T22:16:46.077Z,17.00
2022-09-13T22:19:25.716Z,17.10
2022-09-13T22:22:02.246Z,17.00
2022-09-13T22:24:34.996Z,16.90
2022-09-13T22:27:01.898Z,16.90
2022-09-13T22:29:29.239Z,16.80
2022-09-13T22:31:55.776Z,16.70
2022-09-13T22:34:24.984Z,16.70
2022-09-13T22:36:54.523Z,16.80
2022-09-13T22:39:20.999Z,16.80
2022-09-13T22:41:47.507Z,16.90
2022-09-13T22:44:14.752Z,16.90
2022-09-13T22:46:44.408Z,16.90
2022-09-13T22:49:16.852Z,17.10
2022-09-13T22:51:44.960Z,17.30
2022-09-13T22:54:13.231Z,17.10
2022-09-13T22:56:40.664Z,16.90
2022-09-13T22:59:16.274Z,16.80
2022-09-13T23:01:43.970Z,16.70
2022-09-13T23:04:11.538Z,16.60
2022-09-13T23:06:38.487Z,16.60
2022-09-13T23:09:07.728Z,16.70
2022-09-13T23:11:39.193Z,16.70
2022-09-13T23:14:09.850Z,16.70
2022-09-13T23:16:48.283Z,16.70
2022-09-13T23:19:16.783Z,16.80
2022-09-13T23:21:43.881Z,16.90
2022-09-13T23:24:17.063Z,16.80
2022-09-13T23:26:45.479Z,16.70
2022-09-13T23:29:15.949Z,16.90
2022-09-13T23:31:43.362Z,16.90
2022-09-13T23:34:11.842Z,16.90
2022-09-13T23:36:41.187Z,16.80
2022-09-13T23:39:13.095Z,16.60
2022-09-13T23:41:39.553Z,16.50
2022-09-13T23:44:06.087Z,16.50
2022-09-13T23:46:33.073Z,16.50
2022-09-13T23:48:59.569Z,16.50
2022-09-13T23:51:27.554Z,16.40
2022-09-13T23:53:56.339Z,16.30
2022-09-13T23:56:28.445Z,16.20
2022-09-13T23:58:57.781Z,16.10
